Time;durP1;ratioP1;P1;durP2;ratioP2;P2;SDS_P1;SDS_P2;PMS_P1;PMS_P2;Temp;Humidity;BMP_temperature;BMP_pressure;BME280_temperature;BME280_humidity;BME280_pressure;Samples;Min_cycle;Max_cycle;Signal;HPM_P1;HPM_P2
2023/12/18 00:02:33;;;;;;;27.80;7.38;;;;;;;;;;4892106;24;20542;-90
2023/12/18 00:05:03;;;;;;;16.40;6.32;;;;;;;;;;4828491;29;20086;-91
2023/12/18 00:07:32;;;;;;;20.05;7.28;;;;;;;;;;4816488;29;20190;-94
2023/12/18 00:09:59;;;;;;;17.52;7.43;;;;;;;;;;4802220;29;20070;-91
2023/12/18 00:13:02;;;;;;;21.60;6.63;;;8.50;99.90;;;;;;4813746;29;20055;-95
2023/12/18 00:15:39;;;;;;;13.93;6.88;;;;;;;;;;4806524;24;20073;-94
2023/12/18 00:18:22;;;;;;;26.38;7.00;;;;;;;;;;4884581;23;20053;-96
2023/12/18 00:21:20;;;;;;;17.73;5.82;;;;;;;;;;4822365;23;20089;-96
2023/12/18 00:24:05;;;;;;;11.90;4.90;;;;;;;;;;4809697;29;20154;-96
2023/12/18 00:26:32;;;;;;;25.40;6.15;;;;;;;;;;4815907;29;20051;-96
2023/12/18 00:29:00;;;;;;;15.57;6.28;;;;;;;;;;4793897;29;20074;-93
2023/12/18 00:31:30;;;;;;;15.00;5.88;;;;;;;;;;4776214;30;20102;-93
2023/12/18 00:34:04;;;;;;;12.20;6.43;;;;;;;;;;4791847;30;20059;-95
2023/12/18 00:36:32;;;;;;;16.80;5.70;;;;;;;;;;4808073;24;20081;-95
2023/12/18 00:39:17;;;;;;;16.42;7.18;;;;;;;;;;4816701;29;20065;-96
2023/12/18 00:42:22;;;;;;;20.77;6.15;;;8.70;99.90;;;;;;4784986;29;20050;-96
2023/12/18 00:45:11;;;;;;;19.05;6.45;;;;;;;;;;4821296;24;20058;-96
2023/12/18 00:47:42;;;;;;;14.02;6.30;;;;;;;;;;4800354;29;20079;-96
2023/12/18 00:50:25;;;;;;;12.82;5.60;;;;;;;;;;4800120;29;20066;-96
2023/12/18 00:53:06;;;;;;;16.88;5.28;;;;;;;;;;4795083;30;20055;-96
2023/12/18 00:55:48;;;;;;;23.95;6.25;;;;;;;;;;4779709;30;20055;-96
2023/12/18 00:58:15;;;;;;;13.68;5.30;;;;;;;;;;4762944;30;20067;-93
2023/12/18 01:00:57;;;;;;;17.08;5.90;;;;;;;;;;4740546;30;20056;-96
2023/12/18 01:03:30;;;;;;;13.70;5.05;;;;;;;;;;4750517;30;20091;-95
2023/12/18 01:06:11;;;;;;;13.23;6.20;;;;;;;;;;4766816;30;20076;-92
2023/12/18 01:08:40;;;;;;;18.77;5.50;;;;;;;;;;4739186;30;20355;-92
2023/12/18 01:11:21;;;;;;;13.27;5.63;;;;;;;;;;4798057;24;20104;-95
2023/12/18 01:13:49;;;;;;;12.80;5.22;;;;;;;;;;4797608;29;20050;-95
2023/12/18 01:16:15;;;;;;;11.88;4.78;;;;;;;;;;4792757;29;20070;-96
2023/12/18 01:18:45;;;;;;;18.98;6.55;;;;;;;;;;4794475;29;20571;-96
2023/12/18 01:21:20;;;;;;;13.43;5.30;;;;;;;;;;4819200;29;20057;-96
2023/12/18 01:23:47;;;;;;;11.27;5.45;;;;;;;;;;4842887;29;20065;-96
2023/12/18 01:26:14;;;;;;;13.27;5.57;;;;;;;;;;4810285;29;20123;-94
2023/12/18 01:28:43;;;;;;;11.40;5.20;;;;;;;;;;4831320;29;20114;-95
2023/12/18 01:31:09;;;;;;;12.85;5.35;;;;;;;;;;4803102;29;20061;-95
2023/12/18 01:33:37;;;;;;;13.05;5.07;;;;;;;;;;4832122;24;20113;-96
2023/12/18 01:36:11;;;;;;;12.82;4.43;;;;;;;;;;4836500;29;20053;-96
2023/12/18 01:38:37;;;;;;;15.38;4.75;;;;;;;;;;4802068;29;20054;-96
2023/12/18 01:41:03;;;;;;;21.15;6.65;;;;;;;;;;4831742;29;20089;-96
2023/12/18 01:43:35;;;;;;;22.33;5.68;;;;;;;;;;4833450;29;20082;-96
2023/12/18 01:46:03;;;;;;;12.40;4.40;;;;;;;;;;4807500;29;20184;-96
2023/12/18 01:48:30;;;;;;;8.93;4.18;;;;;;;;;;4836414;29;20050;-96
2023/12/18 01:51:08;;;;;;;10.45;3.75;;;;;;;;;;4849115;29;20049;-93
2023/12/18 01:54:07;;;;;;;9.20;4.30;;;9.00;99.90;;;;;;4864740;29;20048;-92
2023/12/18 01:56:59;;;;;;;13.55;3.67;;;;;;;;;;4914603;24;20066;-95
2023/12/18 01:59:25;;;;;;;9.32;4.53;;;;;;;;;;4806359;29;20062;-95
2023/12/18 02:01:54;;;;;;;14.82;3.38;;;;;;;;;;4836966;29;20111;-93
2023/12/18 02:04:20;;;;;;;17.25;4.00;;;;;;;;;;4821150;29;20127;-91
2023/12/18 02:06:47;;;;;;;10.05;4.05;;;;;;;;;;4801126;29;20098;-96
2023/12/18 02:09:15;;;;;;;14.25;4.20;;;;;;;;;;4794870;29;20661;-94
2023/12/18 02:11:44;;;;;;;13.30;4.32;;;;;;;;;;4804745;29;20090;-94
2023/12/18 02:14:33;;;;;;;11.65;4.55;;;;;;;;;;4830523;29;20085;-92
2023/12/18 02:17:34;;;;;;;14.02;4.40;;;;;;;;;;4866024;24;20021;-92
2023/12/18 02:20:34;;;;;;;15.55;3.67;;;;;;;;;;4793565;30;20139;-92
2023/12/18 02:23:29;;;;;;;12.63;4.38;;;8.80;99.90;;;;;;4826118;24;20055;-92
2023/12/18 02:26:06;;;;;;;15.23;4.07;;;;;;;;;;4833970;24;20058;-92
2023/12/18 02:28:34;;;;;;;10.20;3.90;;;;;;;;;;4800834;29;20078;-92
2023/12/18 02:31:39;;;;;;;9.38;4.32;;;8.90;99.90;;;;;;4912696;24;20123;-92
2023/12/18 02:34:45;;;;;;;11.73;3.95;;;;;;;;;;4827967;29;20112;-91
2023/12/18 02:37:40;;;;;;;14.15;3.92;;;;;;;;;;4842433;29;20045;-91
2023/12/18 02:40:48;;;;;;;18.70;4.70;;;;;;;;;;4828722;29;20093;-93
2023/12/18 02:43:15;;;;;;;10.13;3.83;;;;;;;;;;4812650;29;20063;-92
2023/12/18 02:48:25;;;;;;;16.13;3.92;;;;;;;;;;4846332;24;20062;-93
2023/12/18 02:50:54;;;;;;;11.77;3.90;;;;;;;;;;4823560;29;20046;-93
2023/12/18 02:53:28;;;;;;;11.65;4.35;;;;;;;;;;4810609;29;20513;-91
2023/12/18 02:55:57;;;;;;;10.38;4.18;;;;;;;;;;4823128;29;20105;-91
2023/12/18 02:58:24;;;;;;;10.00;4.13;;;;;;;;;;4824845;29;20114;-93
2023/12/18 03:00:58;;;;;;;12.82;3.58;;;;;;;;;;4808335;29;20093;-92
2023/12/18 03:03:27;;;;;;;12.70;4.50;;;;;;;;;;4808182;29;20049;-92
2023/12/18 03:06:02;;;;;;;8.60;3.85;;;;;;;;;;4808009;29;20061;-94
2023/12/18 03:08:29;;;;;;;8.57;3.50;;;;;;;;;;4795354;29;20066;-94
2023/12/18 03:11:33;;;;;;;12.10;3.63;;;8.90;99.90;;;;;;4824176;29;20160;-91
2023/12/18 03:14:01;;;;;;;12.80;4.18;;;;;;;;;;4826848;29;20106;-91
2023/12/18 03:19:30;;;;;;;10.52;4.88;;;;;;;;;;4813284;29;20043;-91
2023/12/18 03:22:32;;;;;;;9.55;4.03;;;;;;;;;;4809766;29;20055;-92
2023/12/18 03:24:59;;;;;;;15.07;3.70;;;;;;;;;;4813449;29;20055;-91
2023/12/18 03:38:02;;;;;;;19.13;4.20;;;;;;;;;;4575468;23;20058;-92
2023/12/18 03:40:38;;;;;;;15.05;5.03;;;;;;;;;;4785753;30;20083;-92
2023/12/18 03:43:26;;;;;;;10.82;5.65;;;;;;;;;;4787926;30;20110;-91
2023/12/18 03:46:12;;;;;;;15.82;4.80;;;;;;;;;;4845448;24;20034;-95
2023/12/18 03:48:39;;;;;;;10.52;3.88;;;;;;;;;;4821833;29;20059;-92
2023/12/18 03:51:06;;;;;;;12.43;4.43;;;;;;;;;;4793076;29;20061;-91
2023/12/18 03:53:59;;;;;;;11.20;4.72;;;;;;;;;;4805371;29;20054;-92
2023/12/18 03:56:32;;;;;;;17.05;5.03;;;;;;;;;;4804442;29;20069;-96
2023/12/18 03:58:59;;;;;;;13.93;5.20;;;;;;;;;;4810114;29;20054;-96
2023/12/18 04:01:36;;;;;;;12.18;4.13;;;;;;;;;;4919410;24;20062;-94
2023/12/18 04:04:10;;;;;;;10.68;4.32;;;;;;;;;;4829375;29;20064;-93
2023/12/18 04:06:59;;;;;;;12.25;4.68;;;;;;;;;;4850378;24;20065;-95
2023/12/18 04:10:02;;;;;;;13.50;4.88;;;;;;;;;;4861653;24;20135;-92
2023/12/18 04:18:14;;;;;;;10.82;4.53;;;;;;;;;;4843132;24;20420;-90
2023/12/18 04:21:14;;;;;;;10.35;4.22;;;;;;;;;;4793833;29;20057;-90
2023/12/18 04:26:39;;;;;;;8.68;3.75;;;8.90;99.90;;;;;;4860287;29;20093;-91
2023/12/18 04:38:01;;;;;;;13.40;5.28;;;;;;;;;;4838525;24;20054;-91
2023/12/18 04:41:06;;;;;;;13.05;4.22;;;9.00;99.90;;;;;;4808283;29;20139;-91
2023/12/18 04:43:35;;;;;;;19.35;5.07;;;;;;;;;;4818526;29;20047;-90
2023/12/18 04:46:03;;;;;;;13.23;4.70;;;;;;;;;;4781264;29;20034;-91
2023/12/18 04:48:31;;;;;;;11.27;3.95;;;;;;;;;;4808753;29;20055;-91
2023/12/18 04:51:42;;;;;;;13.07;4.35;;;;;;;;;;4751118;30;20057;-92
2023/12/18 04:54:22;;;;;;;16.52;5.15;;;;;;;;;;4735632;30;20060;-91
2023/12/18 04:57:05;;;;;;;9.65;4.25;;;;;;;;;;4736196;30;20083;-91
2023/12/18 04:59:50;;;;;;;12.38;4.18;;;;;;;;;;4752394;30;20103;-94
2023/12/18 05:02:52;;;;;;;14.82;5.53;;;;;;;;;;4858314;24;20083;-92
2023/12/18 05:05:57;;;;;;;18.17;5.20;;;;;;;;;;4804523;29;20070;-93
2023/12/18 05:11:14;;;;;;;;;;;;;;;;;;;;;
2023/12/18 05:14:04;;;;;;;16.65;5.05;;;;;;;;;;4827439;29;20078;-92
2023/12/18 05:16:42;;;;;;;17.00;4.90;;;;;;;;;;4865059;24;20092;-93
2023/12/18 05:19:24;;;;;;;23.08;5.10;;;;;;;;;;4814173;29;20070;-92
2023/12/18 05:21:50;;;;;;;20.23;5.55;;;;;;;;;;4798572;29;20069;-95
2023/12/18 05:24:21;;;;;;;11.35;5.15;;;;;;;;;;4799859;29;20149;-96
2023/12/18 05:26:47;;;;;;;13.35;4.90;;;;;;;;;;4787812;29;20063;-92
2023/12/18 05:29:14;;;;;;;14.65;4.88;;;;;;;;;;4790836;29;20100;-96
2023/12/18 05:31:43;;;;;;;11.65;5.25;;;;;;;;;;4822844;29;20091;-95
2023/12/18 05:34:09;;;;;;;13.82;5.80;;;;;;;;;;4809556;29;20058;-95
2023/12/18 05:39:11;;;;;;;14.77;5.05;;;;;;;;;;3586608;23;20146;-94
2023/12/18 05:45:31;;;;;;;9.70;4.50;;;;;;;;;;4832616;29;20073;-92
2023/12/18 05:48:07;;;;;;;12.98;5.30;;;;;;;;;;4818679;29;20054;-89
2023/12/18 05:50:45;;;;;;;13.93;6.22;;;;;;;;;;4791356;29;20116;-92
2023/12/18 06:03:31;;;;;;;18.08;6.13;;;;;;;;;;5208856;24;20062;-92
2023/12/18 06:28:57;;;;;;;18.15;9.32;;;;;;;;;;4842673;29;20082;-91
2023/12/18 06:31:58;;;;;;;13.57;8.90;;;;;;;;;;4834894;29;20057;-91
2023/12/18 06:34:36;;;;;;;21.30;7.57;;;;;;;;;;4819457;29;20049;-91
2023/12/18 06:37:16;;;;;;;12.90;7.35;;;;;;;;;;4834400;29;20050;-91
2023/12/18 06:46:10;;;;;;;;;;;;;;;;;;;;;
2023/12/18 06:49:06;;;;;;;18.25;7.90;;;;;;;;;;4844249;29;20046;-91
2023/12/18 06:51:44;;;;;;;21.23;7.88;;;;;;;;;;4812567;29;20081;-92
2023/12/18 06:57:42;;;;;;;15.98;8.82;;;;;;;;;;4818901;23;20420;-95
2023/12/18 07:00:54;;;;;;;24.15;8.93;;;;;;;;;;4927520;24;20066;-96
2023/12/18 07:03:24;;;;;;;22.90;8.57;;;;;;;;;;4828736;24;20125;-91
2023/12/18 07:06:43;;;;;;;14.07;7.93;;;;;;;;;;4788776;29;20059;-93
2023/12/18 07:09:28;;;;;;;19.27;7.47;;;;;;;;;;4728228;29;20059;-94
2023/12/18 07:12:08;;;;;;;16.15;8.50;;;;;;;;;;4786977;29;20047;-96
2023/12/18 07:14:59;;;;;;;21.48;8.98;;;;;;;;;;4820443;24;20066;-91
2023/12/18 07:18:07;;;;;;;21.38;8.65;;;;;;;;;;4806511;29;20062;-95
2023/12/18 07:21:05;;;;;;;18.55;9.18;;;;;;;;;;4776787;29;20055;-94
2023/12/18 07:23:34;;;;;;;22.95;9.23;;;;;;;;;;4814469;29;20055;-91
2023/12/18 07:26:12;;;;;;;18.17;9.07;;;;;;;;;;4861658;24;20054;-96
2023/12/18 07:28:53;;;;;;;19.02;9.55;;;;;;;;;;4806112;29;20051;-96
2023/12/18 07:31:28;;;;;;;21.58;8.90;;;;;;;;;;4797418;29;20065;-95
2023/12/18 07:34:27;;;;;;;18.80;9.02;;;;;;;;;;4748267;30;20116;-92
2023/12/18 07:37:06;;;;;;;21.83;9.65;;;;;;;;;;4745908;30;20056;-96
2023/12/18 07:39:52;;;;;;;25.75;10.38;;;;;;;;;;4742777;30;20076;-96
2023/12/18 07:42:31;;;;;;;18.55;8.75;;;;;;;;;;4715231;30;20053;-93
2023/12/18 07:45:09;;;;;;;21.85;9.48;;;;;;;;;;4711225;30;20060;-95
2023/12/18 07:48:32;;;;;;;24.27;10.82;;;;;;;;;;4712034;30;20053;-93
2023/12/18 07:51:10;;;;;;;21.75;9.77;;;;;;;;;;4706272;30;20553;-94
2023/12/18 07:54:05;;;;;;;26.45;10.10;;;;;;;;;;4713746;30;20472;-90
2023/12/18 07:56:36;;;;;;;18.25;8.88;;;;;;;;;;4695568;30;20043;-90
2023/12/18 07:59:57;;;;;;;16.23;8.85;;;;;;;;;;4731891;30;20134;-91
2023/12/18 08:05:18;;;;;;;;;;;;;;;;;;;;;
2023/12/18 08:17:40;;;;;;;22.95;9.10;;;;;;;;;;4820728;29;20109;-94
2023/12/18 08:20:45;;;;;;;21.35;11.05;;;;;;;;;;4819750;29;20511;-95
2023/12/18 08:26:22;;;;;;;23.92;9.95;;;;;;;;;;4836474;29;19932;-95
2023/12/18 08:29:05;;;;;;;23.92;10.23;;;;;;;;;;4831588;29;20053;-92
2023/12/18 08:31:52;;;;;;;19.05;8.70;;;;;;;;;;4828018;29;20049;-94
2023/12/18 08:34:32;;;;;;;22.65;9.40;;;;;;;;;;4817357;29;20194;-95
2023/12/18 08:37:09;;;;;;;34.22;11.50;;;;;;;;;;4815711;29;20149;-96
2023/12/18 08:40:01;;;;;;;19.15;9.77;;;;;;;;;;4818091;29;20068;-94
2023/12/18 08:42:49;;;;;;;24.20;12.35;;;;;;;;;;4817222;29;20091;-96
2023/12/18 08:45:26;;;;;;;21.45;10.60;;;;;;;;;;4831810;29;20172;-94
2023/12/18 08:48:22;;;;;;;25.25;11.25;;;;;;;;;;4821939;29;20054;-92
2023/12/18 08:50:54;;;;;;;34.35;12.88;;;;;;;;;;4823981;29;20042;-95
2023/12/18 08:54:29;;;;;;;23.63;11.27;;;;;;;;;;4834929;29;20053;-94
2023/12/18 09:00:05;;;;;;;15.88;9.38;;;;;;;;;;4767977;30;20089;-94
2023/12/18 09:03:02;;;;;;;;;;;;;;;;;;;;;
2023/12/18 09:06:00;;;;;;;19.88;11.50;;;;;;;;;;4816832;29;20302;-96
2023/12/18 09:08:51;;;;;;;29.58;12.13;;;;;;;;;;4835795;29;20050;-95
2023/12/18 09:11:41;;;;;;;20.73;11.15;;;;;;;;;;4807993;29;20051;-96
2023/12/18 09:14:14;;;;;;;16.17;10.20;;;;;;;;;;4822045;29;20046;-96
2023/12/18 09:16:41;;;;;;;34.78;11.48;;;;;;;;;;4785590;29;20118;-96
2023/12/18 09:25:04;;;;;;;23.90;11.35;;;;;;;;;;4953761;24;20057;-96
2023/12/18 09:30:42;;;;;;;23.75;11.68;;;;;;;;;;4856200;29;20132;-96
2023/12/18 09:33:30;;;;;;;20.10;10.55;;;;;;;;;;4826192;29;20056;-96
2023/12/18 09:36:29;;;;;;;26.85;10.68;;;;;;;;;;4805474;29;20493;-93
2023/12/18 09:39:27;;;;;;;27.50;12.57;;;;;;;;;;4832527;29;20069;-94
2023/12/18 09:42:37;;;;;;;21.10;10.68;;;;;;;;;;4848455;29;20090;-93
2023/12/18 09:45:23;;;;;;;24.45;11.55;;;;;;;;;;4831984;29;20136;-93
2023/12/18 09:48:19;;;;;;;28.13;12.02;;;;;;;;;;4852972;29;20179;-94
2023/12/18 09:51:31;;;;;;;19.67;11.63;;;;;;;;;;4784111;29;20090;-90
2023/12/18 09:54:09;;;;;;;23.75;11.55;;;;;;;;;;4764593;24;20048;-94
2023/12/18 09:57:13;;;;;;;23.83;10.73;;;;;;;;;;4797249;29;20058;-93
2023/12/18 10:03:47;;;;;;;21.95;11.20;;;;;;;;;;4807910;29;20061;-95
2023/12/18 10:13:41;;;;;;;25.38;10.63;;;;;;;;;;4812513;29;20051;-94
2023/12/18 10:16:45;;;;;;;31.55;12.70;;;;;;;;;;4801685;29;20050;-93
2023/12/18 10:19:42;;;;;;;29.03;13.07;;;;;;;;;;4785282;29;20057;-93
2023/12/18 10:22:18;;;;;;;24.92;12.80;;;;;;;;;;4775607;29;20078;-95
2023/12/18 10:27:52;;;;;;;29.20;11.57;;;;;;;;;;2207549;24;20054;-95
2023/12/18 10:31:14;;;;;;;;;;;;;;;;;;;;;
2023/12/18 10:34:19;;;;;;;23.00;11.52;;;;;;;;;;4893634;24;20066;-95
2023/12/18 10:37:13;;;;;;;25.33;11.23;;;;;;;;;;4837813;29;20068;-94
2023/12/18 10:40:08;;;;;;;26.55;12.50;;;;;;;;;;4823776;29;20490;-93
2023/12/18 10:43:30;;;;;;;16.98;9.27;;;;;;;;;;4868387;24;20088;-92
2023/12/18 10:46:47;;;;;;;;;;;;;;;;;;;;;
2023/12/18 10:49:56;;;;;;;;;;;;;;;;;;;;;
2023/12/18 10:56:37;;;;;;;23.50;11.48;;;;;;;;;;4778948;30;20103;-92
2023/12/18 11:00:19;;;;;;;24.60;12.88;;;9.10;99.90;;;;;;4709095;30;20077;-93
2023/12/18 11:03:29;;;;;;;21.73;12.02;;;;;;;;;;4796720;29;20132;-94
2023/12/18 11:13:28;;;;;;;18.42;10.75;;;;;;;;;;4787056;30;20079;-93
2023/12/18 11:16:26;;;;;;;23.95;11.93;;;;;;;;;;4708887;30;20097;-94
2023/12/18 11:19:14;;;;;;;32.95;13.50;;;;;;;;;;4858825;24;20058;-92
2023/12/18 11:34:12;;;;;;;25.83;13.00;;;;;;;;;;4761448;29;19928;-95
2023/12/18 11:37:35;;;;;;;;;;;;;;;;;;;;;
2023/12/18 11:40:43;;;;;;;24.77;12.48;;;;;;;;;;4770887;30;20055;-91
2023/12/18 11:46:31;;;;;;;;;;;;;;;;;;;;;
2023/12/18 11:50:13;;;;;;;26.85;12.27;;;9.30;99.90;;;;;;4784950;29;20055;-95
2023/12/18 11:57:07;;;;;;;;;;;;;;;;;;;;;
2023/12/18 12:11:28;;;;;;;26.35;13.52;;;;;;;;;;5335990;23;20051;-92
2023/12/18 12:14:25;;;;;;;24.08;12.23;;;;;;;;;;4800269;29;20117;-92
2023/12/18 12:17:11;;;;;;;12.70;8.55;;;;;;;;;;4780090;29;20055;-92
2023/12/18 12:22:27;;;;;;;29.42;13.30;;;;;;;;;;4895359;24;20088;-91
2023/12/18 12:31:25;;;;;;;;;;;;;;;;;;;;;
2023/12/18 12:37:43;;;;;;;27.42;11.95;;;;;;;;;;4669563;30;20216;-91
2023/12/18 12:40:48;;;;;;;30.77;12.23;;;;;;;;;;4653307;30;20043;-95
2023/12/18 12:46:48;;;;;;;;;;;;;;;;;;;;;
2023/12/18 12:50:23;;;;;;;19.83;11.50;;;;;;;;;;4819623;29;20050;-94
2023/12/18 13:00:12;;;;;;;22.27;11.93;;;;;;;;;;4719979;30;20099;-93
2023/12/18 13:53:40;;;;;;;;;;;;;;;;;;;;;
2023/12/18 14:03:42;;;;;;;24.38;11.77;;;;;;;;;;4783884;29;20118;-92
2023/12/18 14:19:17;;;;;;;22.90;11.63;;;;;;;;;;4849427;29;20080;-93
2023/12/18 14:22:13;;;;;;;;;;;;;;;;;;4820473;29;20080;-94
2023/12/18 14:25:11;;;;;;;32.30;12.30;;;;;;;;;;4811627;29;20385;-92
2023/12/18 14:28:13;;;;;;;25.10;12.85;;;;;;;;;;4864147;24;20049;-95
2023/12/18 14:38:56;;;;;;;28.70;12.30;;;;;;;;;;4279151;24;20066;-92
2023/12/18 14:41:51;;;;;;;23.77;12.80;;;;;;;;;;4840416;29;20055;-92
2023/12/18 14:47:41;;;;;;;32.35;13.63;;;;;;;;;;4818079;29;20049;-95
2023/12/18 14:50:33;;;;;;;24.63;12.07;;;;;;;;;;4819390;29;20514;-95
2023/12/18 14:56:27;;;;;;;23.35;10.98;;;;;;;;;;4828021;29;20065;-94
2023/12/18 15:02:07;;;;;;;21.60;11.77;;;;;;;;;;4838404;29;20060;-91
2023/12/18 15:08:12;;;;;;;31.98;14.10;;;;;;;;;;4738996;30;20095;-94
2023/12/18 15:10:47;;;;;;;28.35;11.40;;;;;;;;;;4776500;30;20044;-91
2023/12/18 15:13:16;;;;;;;24.65;10.73;;;;;;;;;;4814665;24;20068;-93
2023/12/18 15:15:47;;;;;;;30.05;11.55;;;;;;;;;;4821370;24;20098;-96
2023/12/18 15:18:26;;;;;;;22.17;12.18;;;;;;;;;;4778530;29;20059;-96
2023/12/18 15:21:00;;;;;;;25.02;13.05;;;;;;;;;;4790987;29;20151;-96
2023/12/18 15:23:28;;;;;;;25.40;13.23;;;;;;;;;;4782419;29;20059;-95
2023/12/18 15:26:01;;;;;;;16.73;10.73;;;;;;;;;;4789259;29;20055;-96
2023/12/18 15:28:36;;;;;;;22.05;12.45;;;;;;;;;;4805180;29;20070;-96
2023/12/18 15:31:17;;;;;;;18.23;10.95;;;;;;;;;;4794698;29;20110;-93
2023/12/18 15:33:53;;;;;;;25.80;11.98;;;;;;;;;;4797175;29;20072;-93
2023/12/18 15:36:34;;;;;;;25.77;13.88;;;;;;;;;;4793912;29;20121;-93
2023/12/18 15:48:08;;;;;;;30.02;13.02;;;;;;;;;;4741525;30;20052;-93
2023/12/18 15:51:07;;;;;;;;;;;;;;;;;;;;;
2023/12/18 15:53:44;;;;;;;23.50;11.75;;;;;;;;;;4814224;29;20057;-93
2023/12/18 16:02:45;;;;;;;23.88;11.73;;;;;;;;;;4796496;29;20051;-95
2023/12/18 16:05:35;;;;;;;26.77;13.32;;;;;;;;;;4790180;29;20054;-95
2023/12/18 16:08:19;;;;;;;;;;;;;;;;;;;;;
2023/12/18 16:13:54;;;;;;;34.67;15.10;;;;;;;;;;5072240;24;20046;-96
2023/12/18 16:16:45;;;;;;;24.42;13.77;;;;;;;;;;4827507;29;20070;-94
2023/12/18 16:20:25;;;;;;;24.52;13.45;;;;;;;;;;4798570;29;20047;-96
2023/12/18 16:26:11;;;;;;;;;;;;;;;;;;;;;
2023/12/18 16:29:06;;;;;;;23.65;12.80;;;;;;;;;;4780985;30;20068;-96
2023/12/18 16:35:08;;;;;;;33.25;15.10;;;8.90;99.90;;;;;;4839176;24;20051;-92
2023/12/18 16:41:37;;;;;;;26.40;13.90;;;;;;;;;;5044419;23;20473;-93
2023/12/18 17:23:36;;;;;;;36.08;19.63;;;;;;;;;;4053150;24;20269;31
2023/12/18 19:47:56;;;;;;;42.25;20.77;;;;;;;;;;4733868;30;20064;-90
2023/12/18 20:01:47;;;;;;;;;;;;;;;;;;;;;
2023/12/18 20:24:03;;;;;;;46.50;24.95;;;;;;;;;;5196691;24;20069;-95
2023/12/18 22:01:55;;;;;;;50.65;27.27;;;;;;;;;;5913013;23;20028;31
2023/12/18 22:04:21;;;;;;;56.30;27.37;;;;;;;;;;4790268;29;20057;-94
2023/12/18 22:06:56;;;;;;;64.13;30.27;;;;;;;;;;4779813;29;20567;-93
2023/12/18 22:09:23;;;;;;;50.63;27.83;;;;;;;;;;4789479;29;20058;-94
2023/12/18 22:11:49;;;;;;;62.38;27.25;;;;;;;;;;4789060;29;20050;-94
2023/12/18 22:14:15;;;;;;;67.97;28.67;;;;;;;;;;4778793;29;20059;-92
2023/12/18 22:16:41;;;;;;;54.80;27.88;;;;;;;;;;4769207;30;20051;-93
2023/12/18 22:19:07;;;;;;;54.90;27.00;;;;;;;;;;4777371;29;20574;-93
2023/12/18 22:21:33;;;;;;;72.90;28.50;;;;;;;;;;4785664;29;20089;-93
2023/12/18 22:23:59;;;;;;;60.25;29.20;;;;;;;;;;4754234;29;20059;-93
2023/12/18 22:26:26;;;;;;;54.15;27.10;;;;;;;;;;4789874;29;20524;-91
2023/12/18 22:28:52;;;;;;;58.10;28.17;;;;;;;;;;4790298;29;20066;-91
2023/12/18 22:31:20;;;;;;;66.22;28.85;;;;;;;;;;4796027;29;20108;-92
2023/12/18 22:33:46;;;;;;;64.13;26.77;;;;;;;;;;4780301;29;20050;-93
2023/12/18 22:36:12;;;;;;;68.13;30.15;;;;;;;;;;4793634;29;20054;-93
2023/12/18 22:38:39;;;;;;;54.10;27.73;;;;;;;;;;4779288;29;20102;-93
2023/12/18 22:41:06;;;;;;;62.90;27.85;;;;;;;;;;4779693;29;20057;-94
2023/12/18 22:43:32;;;;;;;55.88;25.83;;;;;;;;;;4770244;29;20639;-94
2023/12/18 22:46:00;;;;;;;56.65;27.25;;;;;;;;;;4791215;29;20405;-96
2023/12/18 22:48:27;;;;;;;65.53;29.27;;;;;;;;;;4754753;29;20054;-93
2023/12/18 22:50:53;;;;;;;62.00;30.30;;;;;;;;;;4747095;30;20527;-94
2023/12/18 22:53:19;;;;;;;53.53;27.20;;;;;;;;;;4778151;29;20114;-95
2023/12/18 22:55:45;;;;;;;49.28;26.17;;;;;;;;;;4794218;29;20663;-94
2023/12/18 22:58:11;;;;;;;57.33;27.65;;;;;;;;;;4791396;29;20542;-95
2023/12/18 23:00:38;;;;;;;67.10;27.25;;;;;;;;;;4761956;29;20053;-94
2023/12/18 23:03:05;;;;;;;48.00;25.25;;;;;;;;;;4761533;30;20063;-96
2023/12/18 23:05:34;;;;;;;58.25;26.27;;;;;;;;;;4761787;30;20137;-95
2023/12/18 23:08:02;;;;;;;68.50;28.17;;;;;;;;;;4775964;29;20062;-95
2023/12/18 23:10:28;;;;;;;64.25;29.02;;;;;;;;;;4746345;29;20055;-95
2023/12/18 23:12:55;;;;;;;64.32;25.88;;;;;;;;;;4744670;29;20138;-93
2023/12/18 23:15:22;;;;;;;49.22;25.58;;;;;;;;;;4774428;29;20050;-96
2023/12/18 23:17:48;;;;;;;54.33;26.55;;;;;;;;;;4781124;29;20103;-94
2023/12/18 23:20:14;;;;;;;61.75;27.60;;;;;;;;;;4776908;29;20497;-95
2023/12/18 23:22:40;;;;;;;49.08;24.27;;;;;;;;;;4763271;29;20551;-94
2023/12/18 23:25:06;;;;;;;55.10;26.02;;;;;;;;;;4762090;29;20119;-95
2023/12/18 23:27:32;;;;;;;46.20;21.75;;;;;;;;;;4774121;29;20122;-96
2023/12/18 23:29:59;;;;;;;48.40;23.80;;;;;;;;;;4777144;29;20063;-94
2023/12/18 23:32:25;;;;;;;47.63;22.10;;;;;;;;;;4776861;29;20062;-96
2023/12/18 23:34:53;;;;;;;47.53;23.23;;;;;;;;;;4762075;29;20055;-93
2023/12/18 23:37:19;;;;;;;51.13;25.45;;;;;;;;;;4777108;29;20067;-96
2023/12/18 23:39:45;;;;;;;46.40;21.13;;;;;;;;;;4755136;29;20066;-93
2023/12/18 23:42:12;;;;;;;45.58;22.20;;;;;;;;;;4776886;29;20062;-96
2023/12/18 23:44:38;;;;;;;48.08;22.85;;;;;;;;;;4762424;29;20059;-95
2023/12/18 23:47:04;;;;;;;48.42;23.88;;;;;;;;;;4775412;29;20057;-96
2023/12/18 23:49:33;;;;;;;45.00;21.42;;;;;;;;;;4776484;29;20065;-94
2023/12/18 23:52:00;;;;;;;38.47;20.95;;;;;;;;;;4777207;29;20116;-95
2023/12/18 23:54:26;;;;;;;49.60;23.45;;;;;;;;;;4790700;29;20050;-94
2023/12/18 23:56:52;;;;;;;35.70;21.90;;;;;;;;;;4777985;29;20116;-95
2023/12/18 23:59:18;;;;;;;39.85;22.13;;;;;;;;;;4792574;29;20054;-94
